Time;durP1;ratioP1;P1;durP2;ratioP2;P2;SDS_P1;SDS_P2;PMS_P1;PMS_P2;Temp;Humidity;BMP_temperature;BMP_pressure;BME280_temperature;BME280_humidity;BME280_pressure;Samples;Min_cycle;Max_cycle;Signal;HPM_P1;HPM_P2
2023/05/06 00:00:26;;;;;;;12.25;3.45;;;14.10;99.90;;;13.39;100.00;101149.69;4120078;28;20398;-71
2023/05/06 00:02:28;;;;;;;15.63;4.03;;;14.20;99.90;;;13.48;100.00;101164.63;4119773;28;20074;-71
2023/05/06 00:04:29;;;;;;;18.67;4.20;;;14.10;99.90;;;13.49;100.00;101166.28;4118773;28;20610;-71
2023/05/06 00:06:30;;;;;;;10.80;3.83;;;14.10;99.90;;;13.51;100.00;101167.78;4120004;28;20035;-71
2023/05/06 00:08:30;;;;;;;13.30;3.65;;;14.20;99.90;;;13.53;100.00;101165.78;4134957;28;20536;-71
2023/05/06 00:10:31;;;;;;;12.25;4.00;;;14.20;99.90;;;13.52;100.00;101169.44;4118624;28;20022;-71
2023/05/06 00:12:32;;;;;;;17.15;5.55;;;14.20;99.90;;;13.53;100.00;101163.13;4119653;28;20066;-71
2023/05/06 00:14:33;;;;;;;18.45;4.13;;;14.20;99.90;;;13.47;100.00;101152.38;4119873;28;20487;-71
2023/05/06 00:16:34;;;;;;;9.20;3.55;;;14.20;99.90;;;13.53;100.00;101160.47;4120069;28;20082;-71
2023/05/06 00:18:35;;;;;;;11.85;3.55;;;14.20;99.90;;;13.55;100.00;101158.50;4134948;28;20026;-71
2023/05/06 00:20:36;;;;;;;11.63;3.45;;;14.20;99.90;;;13.56;100.00;101159.34;4119844;28;20066;-71
2023/05/06 00:22:37;;;;;;;12.40;3.22;;;14.20;99.90;;;13.57;100.00;101159.16;4119932;28;20085;-71
2023/05/06 00:24:37;;;;;;;10.85;3.17;;;14.20;99.90;;;13.59;100.00;101151.06;4120016;28;20450;-71
2023/05/06 00:26:38;;;;;;;8.77;3.00;;;14.20;99.90;;;13.51;100.00;101141.25;4119486;28;20035;-71
2023/05/06 00:28:39;;;;;;;9.88;3.78;;;14.20;99.90;;;13.58;100.00;101152.03;4119600;28;20018;-71
2023/05/06 00:30:40;;;;;;;12.90;3.80;;;14.20;99.90;;;13.61;100.00;101133.16;4134546;28;20037;-71
2023/05/06 00:32:41;;;;;;;9.98;3.42;;;14.20;99.90;;;13.60;100.00;101136.78;4119576;28;20574;-71
2023/05/06 00:34:42;;;;;;;13.25;3.50;;;14.20;99.90;;;13.62;100.00;101135.63;4134758;28;20041;-71
2023/05/06 00:36:43;;;;;;;14.68;4.18;;;14.30;99.90;;;13.63;100.00;101121.38;4119738;28;20054;-71
2023/05/06 00:38:44;;;;;;;7.43;3.95;;;14.30;99.90;;;13.65;100.00;101113.28;4119780;28;20034;-71
2023/05/06 00:40:45;;;;;;;7.30;3.05;;;14.30;99.90;;;13.65;100.00;101113.28;4119307;28;20042;-71
2023/05/06 00:42:45;;;;;;;22.23;5.82;;;14.30;99.90;;;13.67;100.00;101121.88;4119789;28;20027;-71
2023/05/06 00:44:46;;;;;;;12.73;5.13;;;14.30;99.90;;;13.64;100.00;101106.31;4136971;28;20133;-71
2023/05/06 00:46:47;;;;;;;11.32;5.82;;;14.30;99.90;;;13.65;100.00;101118.59;4121515;28;20023;-71
2023/05/06 00:48:48;;;;;;;12.70;6.72;;;14.30;99.90;;;13.64;100.00;101112.44;4137496;28;20035;-71
2023/05/06 00:50:49;;;;;;;17.63;7.70;;;14.30;99.90;;;13.67;100.00;101105.97;4121597;28;20042;-71
2023/05/06 00:52:50;;;;;;;12.15;6.93;;;14.30;99.90;;;13.63;100.00;101102.81;4122668;28;20031;-71
2023/05/06 00:54:51;;;;;;;13.95;6.20;;;14.30;99.90;;;13.63;100.00;101105.47;4137523;28;20371;-71
2023/05/06 00:56:53;;;;;;;11.25;6.35;;;14.30;99.90;;;13.63;100.00;101097.53;4122211;28;20053;-71
2023/05/06 00:58:54;;;;;;;12.45;6.30;;;14.30;99.90;;;13.62;100.00;101097.72;4122652;28;20462;-71
2023/05/06 01:00:55;;;;;;;17.55;6.55;;;14.30;99.90;;;13.56;100.00;101085.94;4137335;28;20027;-71
2023/05/06 01:02:56;;;;;;;12.73;5.72;;;14.30;99.90;;;13.60;100.00;101097.88;4122410;28;20031;-71
2023/05/06 01:04:57;;;;;;;11.82;5.45;;;14.20;99.90;;;13.58;100.00;101093.72;4122388;28;20027;-71
2023/05/06 01:07:27;;;;;;;14.27;5.28;;;14.20;99.90;;;13.48;100.00;101074.50;4137317;28;20034;-71
2023/05/06 01:09:51;;;;;;;11.52;5.22;;;14.20;99.90;;;13.58;100.00;101091.06;4135348;28;20618;-71
2023/05/06 01:12:45;;;;;;;18.30;7.35;;;14.30;99.90;;;13.58;100.00;101086.59;4135904;28;20030;-71
2023/05/06 01:15:20;;;;;;;17.38;6.97;;;14.20;99.90;;;13.58;100.00;101085.78;4122202;28;20031;-71
2023/05/06 01:17:26;;;;;;;;;;;14.30;99.90;;;13.51;100.00;101080.31;4136845;28;20026;-71
2023/05/06 01:19:49;;;;;;;13.05;6.55;;;14.30;99.90;;;13.56;100.00;101093.88;4120988;28;19909;-71
2023/05/06 01:21:53;;;;;;;17.45;7.05;;;14.20;99.90;;;13.56;100.00;101082.47;4122191;28;20046;-71
2023/05/06 01:23:56;;;;;;;11.70;7.38;;;14.20;99.90;;;13.58;100.00;101081.31;4136976;28;20030;-71
2023/05/06 01:25:57;;;;;;;15.23;7.50;;;14.20;99.90;;;13.55;100.00;101076.34;4136650;28;20044;-71
2023/05/06 01:27:58;;;;;;;11.77;6.05;;;14.20;99.90;;;13.57;100.00;101068.19;4137091;28;20027;-71
2023/05/06 01:30:00;;;;;;;10.35;6.18;;;14.20;99.90;;;13.55;100.00;101070.19;4122390;28;20031;-71
2023/05/06 01:32:38;;;;;;;15.95;7.05;;;14.20;99.90;;;13.54;100.00;101068.53;4137077;28;20030;-71
2023/05/06 01:34:58;;;;;;;11.73;5.65;;;14.20;99.90;;;13.51;100.00;101060.91;4122103;28;20054;-71
2023/05/06 01:37:13;;;;;;;11.27;4.95;;;14.20;99.90;;;13.54;100.00;101072.03;4121805;28;20114;-71
2023/05/06 01:39:29;;;;;;;8.60;5.00;;;14.20;99.90;;;13.52;100.00;101071.38;4122077;28;20027;-71
2023/05/06 01:41:33;;;;;;;13.38;5.20;;;14.20;99.90;;;13.47;100.00;101067.56;4121610;28;20046;-71
2023/05/06 01:43:40;;;;;;;8.25;4.30;;;14.20;99.90;;;13.48;100.00;101062.09;4132658;28;20050;-71
2023/05/06 01:45:42;;;;;;;7.18;3.88;;;14.10;99.90;;;13.46;100.00;101050.00;4136386;28;20609;-71
2023/05/06 01:47:45;;;;;;;9.27;5.25;;;14.10;99.90;;;13.43;100.00;101056.47;4136970;28;20053;-71
2023/05/06 01:49:47;;;;;;;11.07;4.70;;;14.10;99.90;;;13.40;100.00;101055.97;4136678;28;20018;-71
2023/05/06 01:51:50;;;;;;;10.27;4.50;;;14.10;99.90;;;13.34;100.00;101060.13;4121612;28;20027;-71
2023/05/06 01:53:51;;;;;;;12.68;5.18;;;14.00;99.90;;;13.32;100.00;101062.91;4136654;28;20026;-71
2023/05/06 01:55:51;;;;;;;6.97;3.88;;;14.00;99.90;;;13.32;100.00;101063.94;4121271;28;20556;-71
2023/05/06 01:57:55;;;;;;;5.38;2.70;;;14.00;99.90;;;13.32;100.00;101064.72;4121619;28;20022;-71
2023/05/06 01:59:56;;;;;;;12.75;3.88;;;14.00;99.90;;;13.30;100.00;101059.63;4121646;28;20065;-71
2023/05/06 02:01:57;;;;;;;10.00;4.38;;;14.00;99.90;;;13.32;100.00;101069.22;4121613;28;20042;-71
2023/05/06 02:03:57;;;;;;;8.95;3.92;;;14.00;99.90;;;13.29;100.00;101060.59;4136547;28;20037;-71
2023/05/06 02:05:58;;;;;;;6.32;3.35;;;13.90;99.90;;;13.29;100.00;101067.72;4121268;28;20109;-71
2023/05/06 02:07:59;;;;;;;6.97;3.20;;;13.90;99.90;;;13.27;100.00;101062.59;4121307;28;20031;-71
2023/05/06 02:10:00;;;;;;;8.02;3.50;;;13.90;99.90;;;13.22;100.00;101062.28;4121319;28;20048;-71
2023/05/06 02:12:01;;;;;;;7.18;3.08;;;13.90;99.90;;;13.19;100.00;101056.47;4119973;28;20070;-71
2023/05/06 02:14:01;;;;;;;13.35;4.25;;;13.80;99.90;;;13.14;100.00;101050.84;4121389;28;20031;-71
2023/05/06 02:16:03;;;;;;;6.47;3.40;;;13.80;99.90;;;13.09;100.00;101051.31;4121330;28;20398;-71
2023/05/06 02:18:04;;;;;;;6.72;2.83;;;13.80;99.90;;;13.09;100.00;101051.31;4136160;28;20038;-71
2023/05/06 02:20:06;;;;;;;9.27;3.33;;;13.70;99.90;;;13.06;100.00;101048.13;4136175;28;20121;-71
2023/05/06 02:22:07;;;;;;;6.00;2.97;;;13.80;99.90;;;13.04;100.00;101047.47;4136145;28;20069;-71
2023/05/06 02:24:07;;;;;;;7.30;2.65;;;13.70;99.90;;;13.03;100.00;101054.59;4120017;28;20034;-71
2023/05/06 02:26:09;;;;;;;6.25;2.40;;;13.70;99.90;;;13.03;100.00;101064.34;4135735;28;20040;-71
2023/05/06 02:28:10;;;;;;;5.57;2.63;;;13.70;99.90;;;12.97;100.00;101054.41;4121366;28;20050;-71
2023/05/06 02:30:11;;;;;;;8.50;2.58;;;13.60;99.90;;;12.90;100.00;101043.69;4136056;28;20379;-71
2023/05/06 02:32:12;;;;;;;7.80;2.75;;;13.60;99.90;;;12.85;100.00;101048.63;4135910;28;20022;-71
2023/05/06 02:34:13;;;;;;;5.60;2.63;;;13.60;99.90;;;12.85;100.00;101056.56;4120861;28;20023;-71
2023/05/06 02:36:14;;;;;;;5.00;2.38;;;13.50;99.90;;;12.83;100.00;101047.13;4121172;28;20027;-71
2023/05/06 02:38:15;;;;;;;5.63;2.50;;;13.50;99.90;;;12.79;100.00;101046.63;4136033;28;20037;-71
2023/05/06 02:40:16;;;;;;;4.80;2.08;;;13.50;99.90;;;12.74;100.00;101047.13;4120987;28;20470;-71
2023/05/06 02:42:17;;;;;;;8.55;2.97;;;13.40;99.90;;;12.65;100.00;101039.31;4120553;28;20066;-71
2023/05/06 02:44:18;;;;;;;6.88;2.40;;;13.40;99.90;;;12.61;100.00;101043.28;4136030;28;20078;-71
2023/05/06 02:46:19;;;;;;;7.75;2.40;;;13.30;99.90;;;12.55;100.00;101035.97;4120863;28;20027;-71
2023/05/06 02:48:20;;;;;;;10.43;2.75;;;13.30;99.90;;;12.56;100.00;101046.41;4135746;28;20053;-71
2023/05/06 02:50:21;;;;;;;5.45;1.98;;;13.30;99.90;;;12.56;100.00;101040.28;4120878;28;20442;-71
2023/05/06 02:52:21;;;;;;;8.25;1.80;;;13.30;99.90;;;12.57;100.00;101041.94;4122639;28;20023;-71
2023/05/06 02:54:22;;;;;;;7.75;1.83;;;13.20;99.90;;;12.53;100.00;101037.97;4120797;28;20454;-71
2023/05/06 02:56:23;;;;;;;4.00;1.85;;;13.30;99.90;;;12.54;100.00;101043.09;4120488;28;20030;-71
2023/05/06 02:58:25;;;;;;;5.85;2.28;;;13.20;99.90;;;12.52;100.00;101044.22;4120753;28;20026;-71
2023/05/06 03:00:25;;;;;;;4.43;1.83;;;13.20;99.90;;;12.54;100.00;101044.91;4135806;28;20030;-71
2023/05/06 03:02:26;;;;;;;7.00;1.90;;;13.20;99.90;;;12.58;100.00;101038.28;4120743;28;20561;-71
2023/05/06 03:04:27;;;;;;;6.38;1.85;;;13.20;99.90;;;12.61;100.00;101043.28;4120570;28;20030;-71
2023/05/06 03:06:28;;;;;;;5.35;1.90;;;13.30;99.90;;;12.65;100.00;101044.59;4119896;28;20023;-71
2023/05/06 03:08:29;;;;;;;6.80;2.28;;;13.30;99.90;;;12.68;100.00;101052.22;4120559;28;20041;-71
2023/05/06 03:10:30;;;;;;;7.43;2.25;;;13.30;99.90;;;12.68;100.00;101060.16;4135174;28;20555;-71
2023/05/06 03:12:31;;;;;;;6.50;2.25;;;13.30;99.90;;;12.71;100.00;101070.44;4135414;28;20030;-71
2023/05/06 03:14:31;;;;;;;4.05;2.35;;;13.40;99.90;;;12.73;100.00;101073.75;4120436;28;20031;-71
2023/05/06 03:16:32;;;;;;;5.78;1.65;;;13.40;99.90;;;12.75;100.00;101061.19;4120494;28;20022;-71
2023/05/06 03:18:33;;;;;;;3.75;1.85;;;13.40;99.90;;;12.74;100.00;101052.41;4120497;28;20034;-71
2023/05/06 03:20:34;;;;;;;4.78;1.80;;;13.40;99.90;;;12.81;100.00;101054.41;4135364;28;20058;-71
2023/05/06 03:22:35;;;;;;;4.43;1.88;;;13.50;99.90;;;12.80;100.00;101043.00;4120350;28;20554;-71
2023/05/06 03:24:36;;;;;;;4.75;1.60;;;13.50;99.90;;;12.86;100.00;101052.94;4135113;28;20033;-71
2023/05/06 03:26:36;;;;;;;5.10;2.20;;;13.50;99.90;;;12.82;100.00;101040.16;4119945;28;20038;-71
2023/05/06 03:28:37;;;;;;;8.63;2.17;;;13.50;99.90;;;12.86;100.00;101041.50;4120289;28;20054;-71
2023/05/06 03:30:38;;;;;;;6.07;2.20;;;13.50;99.90;;;12.86;100.00;101042.34;4120227;28;20035;-71
2023/05/06 03:32:39;;;;;;;5.63;1.92;;;13.50;99.90;;;12.88;100.00;101047.47;4134745;28;20026;-71
2023/05/06 03:34:40;;;;;;;8.55;2.97;;;13.50;99.90;;;12.90;100.00;101037.56;4119099;28;20041;-71
2023/05/06 03:36:41;;;;;;;3.83;1.80;;;13.60;99.90;;;12.90;100.00;101043.69;4120158;28;20031;-71
2023/05/06 03:38:42;;;;;;;4.40;2.13;;;13.60;99.90;;;12.87;100.00;101044.00;4120225;28;20031;-71
2023/05/06 03:40:43;;;;;;;6.38;2.22;;;13.50;99.90;;;12.90;100.00;101042.84;4134603;28;20026;-71
2023/05/06 03:42:44;;;;;;;6.35;2.00;;;13.50;99.90;;;12.86;100.00;101028.25;4135027;28;20030;-71
2023/05/06 03:44:45;;;;;;;5.40;1.77;;;13.60;99.90;;;12.90;100.00;101029.59;4120014;28;20047;-71
2023/05/06 03:46:46;;;;;;;6.43;2.17;;;13.60;99.90;;;12.88;100.00;101031.56;4119981;28;20041;-71
2023/05/06 03:48:47;;;;;;;4.72;1.83;;;13.60;99.90;;;12.93;100.00;101038.03;4135089;28;20421;-71
2023/05/06 03:50:48;;;;;;;4.97;1.83;;;13.60;99.90;;;12.94;100.00;101028.25;4120197;28;20038;-71
2023/05/06 03:52:49;;;;;;;9.75;1.90;;;13.60;99.90;;;12.90;100.00;101019.84;4135184;28;20104;-71
2023/05/06 03:54:50;;;;;;;6.00;1.65;;;13.60;99.90;;;12.82;100.00;101006.59;4118713;28;20086;-71
2023/05/06 03:56:51;;;;;;;3.70;1.80;;;13.60;99.90;;;12.91;100.00;101012.72;4119661;28;20026;-71
2023/05/06 03:58:53;;;;;;;6.18;1.55;;;13.60;99.90;;;12.91;100.00;101020.66;4135081;28;20065;-71
2023/05/06 04:00:54;;;;;;;5.80;1.70;;;13.60;99.90;;;12.84;100.00;101009.09;4132377;28;20105;-71
2023/05/06 04:02:55;;;;;;;8.52;2.13;;;13.60;99.90;;;12.91;100.00;101024.13;4120007;28;20406;-71
2023/05/06 04:04:56;;;;;;;6.03;2.95;;;13.60;99.90;;;12.90;100.00;101021.66;4119796;28;20030;-71
2023/05/06 04:06:56;;;;;;;5.68;2.10;;;13.60;99.90;;;12.90;100.00;101021.66;4102489;28;20023;-72
2023/05/06 04:08:57;;;;;;;10.70;1.92;;;13.60;99.90;;;12.88;100.00;101019.16;4110835;28;20023;-71
2023/05/06 04:11:05;;;;;;;8.40;2.92;;;13.60;99.90;;;12.88;100.00;101013.03;4119731;28;20023;-72
2023/05/06 04:13:06;;;;;;;4.57;1.80;;;13.60;99.90;;;12.87;100.00;101017.53;4134931;28;20027;-71
2023/05/06 04:15:08;;;;;;;4.18;1.70;;;13.60;99.90;;;12.85;100.00;101002.78;4120101;28;20037;-71
2023/05/06 04:17:09;;;;;;;6.53;3.08;;;13.50;99.90;;;12.88;100.00;101011.22;4118891;28;20062;-71
2023/05/06 04:19:10;;;;;;;7.25;2.35;;;13.60;99.90;;;12.88;100.00;101016.53;4122786;28;20023;-71
2023/05/06 04:21:11;;;;;;;5.50;1.90;;;13.60;99.90;;;12.90;100.00;101011.91;4123191;28;20391;-71
2023/05/06 04:23:12;;;;;;;5.88;1.67;;;13.60;99.90;;;12.87;100.00;101006.94;4137905;28;20034;-71
2023/05/06 04:25:12;;;;;;;5.05;1.60;;;13.60;99.90;;;12.91;100.00;101018.00;4122961;28;20022;-71
2023/05/06 04:27:14;;;;;;;7.68;1.70;;;13.60;99.90;;;12.90;100.00;101011.91;4122932;28;20030;-71
2023/05/06 04:29:15;;;;;;;3.40;1.70;;;13.60;99.90;;;12.91;100.00;101015.34;4138040;28;20022;-71
2023/05/06 04:31:16;;;;;;;4.78;1.70;;;13.60;99.90;;;12.90;100.00;101011.91;4123152;28;20031;-71
2023/05/06 04:33:17;;;;;;;5.88;1.85;;;13.60;99.90;;;12.91;100.00;101007.41;4123194;28;20027;-71
2023/05/06 04:35:18;;;;;;;5.75;1.90;;;13.60;99.90;;;12.89;100.00;101006.75;4122919;28;20030;-71
2023/05/06 04:37:19;;;;;;;4.78;1.55;;;13.60;99.90;;;12.90;100.00;101001.31;4123205;28;20027;-71
2023/05/06 04:39:20;;;;;;;3.42;1.83;;;13.60;99.90;;;12.90;100.00;100997.84;4122880;28;20023;-71
2023/05/06 04:41:22;;;;;;;5.72;1.67;;;13.60;99.90;;;12.91;100.00;100999.47;4122688;28;20034;-71
2023/05/06 04:43:26;;;;;;;6.50;1.70;;;13.60;99.90;;;12.90;100.00;100992.53;4122681;28;20031;-71
2023/05/06 04:45:28;;;;;;;3.47;1.55;;;13.60;99.90;;;12.91;100.00;100997.66;4122596;28;20058;-71
2023/05/06 04:47:29;;;;;;;4.80;1.30;;;13.60;99.90;;;12.86;100.00;100992.03;4123012;28;20031;-71
2023/05/06 04:49:30;;;;;;;2.88;1.42;;;13.60;99.90;;;12.79;100.00;100991.03;4123112;28;20022;-71
2023/05/06 04:51:31;;;;;;;6.43;1.90;;;13.50;99.90;;;12.75;100.00;100992.38;4122657;28;20023;-71
2023/05/06 04:53:32;;;;;;;2.50;1.40;;;13.40;99.90;;;12.67;100.00;100990.53;4122425;28;20102;-71
2023/05/06 04:55:34;;;;;;;8.10;2.08;;;13.40;99.90;;;12.65;100.00;101008.38;4137457;28;20027;-71
2023/05/06 04:57:35;;;;;;;4.38;1.98;;;13.40;99.90;;;12.64;100.00;100998.78;4122772;28;20031;-71
2023/05/06 04:59:35;;;;;;;5.63;1.77;;;13.30;99.90;;;12.70;100.00;100997.31;4137349;28;20046;-71
2023/05/06 05:01:36;;;;;;;9.00;3.38;;;13.40;99.90;;;12.72;100.00;101003.28;4122435;28;20038;-71
2023/05/06 05:03:37;;;;;;;4.35;1.70;;;13.40;99.90;;;12.74;100.00;101014.53;4122593;28;20026;-71
2023/05/06 05:05:38;;;;;;;4.28;2.65;;;13.40;99.90;;;12.74;100.00;100998.63;4122256;28;20082;-71
2023/05/06 05:07:39;;;;;;;4.07;1.58;;;13.40;99.90;;;12.80;100.00;101010.38;4121112;28;20551;-71
2023/05/06 05:09:40;;;;;;;5.30;2.13;;;13.50;99.90;;;12.80;100.00;101020.97;4122562;28;20023;-71
2023/05/06 05:11:40;;;;;;;7.43;2.03;;;13.50;99.90;;;12.84;100.00;101025.81;4121704;28;20026;-71
2023/05/06 05:13:41;;;;;;;5.25;2.17;;;13.50;99.90;;;12.82;100.00;101013.69;4122277;28;20081;-71
2023/05/06 05:15:42;;;;;;;5.07;1.60;;;13.50;99.90;;;12.91;100.00;101021.47;4137185;28;20421;-71
2023/05/06 05:17:43;;;;;;;5.47;1.88;;;13.60;99.90;;;12.95;100.00;101022.81;4121899;28;20035;-71
2023/05/06 05:19:44;;;;;;;5.15;2.22;;;13.60;99.90;;;12.97;100.00;101028.78;4136670;28;20091;-71
2023/05/06 05:21:45;;;;;;;4.65;2.30;;;13.60;99.90;;;12.98;100.00;101026.97;4122489;28;20545;-71
2023/05/06 05:23:46;;;;;;;6.75;3.03;;;13.60;99.90;;;12.92;100.00;101024.97;4122192;28;20380;-71
2023/05/06 05:25:47;;;;;;;4.97;2.22;;;13.70;99.90;;;12.96;100.00;101034.25;4122053;28;20026;-71
2023/05/06 05:27:48;;;;;;;5.45;1.65;;;13.70;99.90;;;13.04;100.00;101040.38;4120883;28;20026;-71
2023/05/06 05:29:49;;;;;;;3.72;1.83;;;13.70;99.90;;;13.02;100.00;101030.94;4121389;28;20034;-71
2023/05/06 05:31:49;;;;;;;5.53;1.98;;;13.70;99.90;;;13.08;100.00;101041.72;4137181;28;20061;-71
2023/05/06 05:33:50;;;;;;;6.53;2.15;;;13.70;99.90;;;13.11;100.00;101049.34;4122046;28;20038;-71
2023/05/06 05:35:51;;;;;;;4.40;2.38;;;13.70;99.90;;;13.13;100.00;101043.88;4121848;28;20494;-71
2023/05/06 05:37:52;;;;;;;5.35;2.05;;;13.80;99.90;;;13.12;100.00;101043.06;4136586;28;20522;-71
2023/05/06 05:39:53;;;;;;;7.60;1.88;;;13.80;99.90;;;13.17;100.00;101040.72;4121971;28;20034;-72
2023/05/06 05:41:54;;;;;;;5.78;1.80;;;13.80;99.90;;;13.18;100.00;101031.78;4136581;28;20506;-71
2023/05/06 05:43:55;;;;;;;5.40;2.40;;;13.80;99.90;;;13.22;100.00;101038.44;4121621;28;20057;-71
2023/05/06 05:45:56;;;;;;;6.35;2.15;;;13.90;99.90;;;13.24;100.00;101044.38;4121927;28;20046;-71
2023/05/06 05:47:56;;;;;;;6.45;2.30;;;13.90;99.90;;;13.26;100.00;101039.72;4121914;28;20030;-71
2023/05/06 05:49:57;;;;;;;5.15;2.08;;;13.90;99.90;;;13.32;100.00;101042.72;4136963;28;20030;-71
2023/05/06 05:51:58;;;;;;;5.05;1.95;;;14.00;99.90;;;13.34;100.00;101032.78;4120658;28;20026;-71
2023/05/06 05:53:59;;;;;;;5.78;1.80;;;14.00;99.90;;;13.38;100.00;101037.56;4121800;28;20041;-72
2023/05/06 05:56:00;;;;;;;5.47;2.17;;;14.10;99.90;;;13.45;100.00;101035.91;4136398;28;20089;-71
2023/05/06 05:58:01;;;;;;;3.63;1.80;;;14.10;99.90;;;13.48;100.00;101034.75;4120378;28;20782;-71
2023/05/06 06:00:03;;;;;;;3.72;1.65;;;14.10;99.90;;;13.54;100.00;101031.44;4121576;28;20031;-71
2023/05/06 06:02:04;;;;;;;4.65;1.58;;;14.10;99.90;;;13.60;100.00;101036.91;4121714;28;20031;-71
2023/05/06 06:04:05;;;;;;;3.78;1.77;;;14.20;99.90;;;13.63;100.00;101036.56;4121615;28;20035;-71
2023/05/06 06:06:07;;;;;;;4.03;1.90;;;14.30;99.90;;;13.69;100.00;101027.09;4120657;28;20569;-71
2023/05/06 06:08:08;;;;;;;3.85;2.03;;;14.30;99.90;;;13.72;100.00;101034.72;4121470;28;20482;-71
2023/05/06 06:10:09;;;;;;;6.30;2.00;;;14.40;99.90;;;13.77;100.00;101045.63;4121517;28;20050;-71
2023/05/06 06:12:10;;;;;;;7.78;2.60;;;14.40;99.90;;;13.77;100.00;101037.69;4121306;28;20375;-71
2023/05/06 06:14:11;;;;;;;7.05;2.15;;;14.40;99.90;;;13.79;100.00;101030.41;4121418;28;20030;-71
2023/05/06 06:16:12;;;;;;;7.38;2.50;;;14.40;99.90;;;13.75;100.00;101019.31;4121323;28;20022;-71
2023/05/06 06:18:12;;;;;;;5.13;1.80;;;14.50;99.90;;;13.82;100.00;101028.25;4120368;28;20035;-71
2023/05/06 06:20:13;;;;;;;7.10;2.47;;;14.50;99.90;;;13.90;100.00;101026.53;4121399;28;20380;-71
2023/05/06 06:22:14;;;;;;;5.05;2.20;;;14.50;99.90;;;13.92;100.00;101027.22;4136145;28;20030;-71
2023/05/06 06:24:15;;;;;;;7.18;2.08;;;14.60;99.90;;;14.00;100.00;101038.63;4135773;28;20022;-71
2023/05/06 06:26:16;;;;;;;3.30;1.80;;;14.60;99.90;;;14.07;100.00;101023.66;4120908;28;20050;-71
2023/05/06 06:28:17;;;;;;;5.72;2.65;;;14.70;99.90;;;14.15;100.00;101031.63;4121465;28;20023;-71
2023/05/06 06:30:17;;;;;;;6.95;1.83;;;14.70;99.90;;;14.10;100.00;101019.84;4136084;28;20050;-72
2023/05/06 06:32:18;;;;;;;6.50;1.85;;;14.80;99.90;;;14.16;100.00;101027.94;4119994;28;20030;-72
2023/05/06 06:34:19;;;;;;;8.73;2.88;;;14.80;99.90;;;14.22;100.00;101021.94;4121211;28;20027;-72
2023/05/06 06:36:20;;;;;;;6.70;1.70;;;14.80;99.90;;;14.24;100.00;101025.28;4136044;28;20026;-71
2023/05/06 06:38:21;;;;;;;8.77;2.25;;;14.90;99.90;;;14.27;100.00;101029.41;4121038;28;20031;-71
2023/05/06 06:40:22;;;;;;;6.93;2.30;;;14.90;99.90;;;14.33;100.00;101034.88;4120762;28;20372;-72
2023/05/06 06:42:23;;;;;;;6.47;2.90;;;15.00;99.90;;;14.35;100.00;101026.72;4135853;28;20104;-71
2023/05/06 06:44:24;;;;;;;7.22;2.17;;;15.00;99.90;;;14.46;100.00;101030.81;4120782;28;20134;-71
2023/05/06 06:46:25;;;;;;;6.95;2.08;;;15.00;99.90;;;14.55;100.00;101038.56;4135761;28;20026;-71
2023/05/06 06:48:26;;;;;;;5.43;1.88;;;15.10;99.90;;;14.63;100.00;101030.56;4119625;28;20062;-71
2023/05/06 06:50:26;;;;;;;8.05;2.22;;;15.20;99.90;;;14.71;100.00;101038.47;4120698;28;20031;-71
2023/05/06 06:52:27;;;;;;;7.78;2.55;;;15.30;99.90;;;14.71;100.00;101038.47;4120957;28;20045;-71
2023/05/06 06:54:28;;;;;;;7.93;2.90;;;15.30;99.90;;;14.80;100.00;101044.56;4135700;28;20081;-71
2023/05/06 06:56:30;;;;;;;6.85;2.78;;;15.40;99.90;;;14.86;100.00;101042.03;4120499;28;20030;-71
2023/05/06 06:58:32;;;;;;;10.02;2.30;;;15.40;99.90;;;14.82;100.00;101045.22;4120696;28;20087;-71
2023/05/06 07:00:33;;;;;;;6.35;2.13;;;15.50;99.90;;;14.85;100.00;101050.16;4121000;28;20034;-71
2023/05/06 07:02:34;;;;;;;10.57;2.60;;;15.50;99.90;;;14.87;100.00;101045.53;4120694;28;20090;-71
2023/05/06 07:04:35;;;;;;;8.48;2.15;;;15.50;99.90;;;14.88;100.00;101052.47;4135480;28;20398;-71
2023/05/06 07:06:36;;;;;;;8.23;2.53;;;15.60;99.90;;;14.94;100.00;101055.25;4119277;28;20031;-71
2023/05/06 07:08:37;;;;;;;9.32;2.80;;;15.60;99.90;;;15.05;100.00;101047.88;4120733;28;20030;-71
2023/05/06 07:10:37;;;;;;;6.15;1.70;;;15.60;99.90;;;15.12;100.00;101057.63;4120524;28;20486;-71
2023/05/06 07:12:38;;;;;;;6.53;1.88;;;15.70;99.90;;;15.19;100.00;101058.56;4132958;28;20534;-71
2023/05/06 07:14:40;;;;;;;8.63;2.25;;;15.80;99.90;;;15.10;100.00;101053.50;4118174;28;20101;-71
2023/05/06 07:16:41;;;;;;;5.93;1.92;;;15.70;99.90;;;15.08;100.00;101056.34;4134683;28;20113;-71
2023/05/06 07:18:41;;;;;;;8.68;2.17;;;15.70;99.90;;;15.00;100.00;101055.53;4119519;28;20035;-71
2023/05/06 07:20:42;;;;;;;7.00;1.85;;;15.70;99.90;;;15.01;100.00;101060.69;4134904;28;20022;-71
2023/05/06 07:22:44;;;;;;;6.53;1.92;;;15.70;99.90;;;15.04;100.00;101068.31;4119772;28;20035;-71
2023/05/06 07:24:45;;;;;;;6.55;2.33;;;15.60;99.90;;;15.05;100.00;101058.50;4120166;28;20018;-71
2023/05/06 07:26:46;;;;;;;8.80;2.47;;;15.70;99.90;;;15.09;100.00;101062.44;4119878;28;20379;-71
2023/05/06 07:28:47;;;;;;;7.70;2.30;;;15.70;99.90;;;15.18;100.00;101067.53;4134035;28;20026;-71
2023/05/06 07:30:50;;;;;;;8.25;2.63;;;15.80;99.90;;;15.24;100.00;101066.00;4119688;28;20038;-71
2023/05/06 07:32:51;;;;;;;9.68;2.30;;;15.80;99.90;;;15.26;100.00;101062.16;4134804;28;20501;-71
2023/05/06 07:34:51;;;;;;;5.93;1.63;;;15.90;99.90;;;15.25;100.00;101063.16;4119726;28;20054;-71
2023/05/06 07:36:52;;;;;;;6.40;1.38;;;15.90;99.90;;;15.29;100.00;101064.44;4119448;28;20399;-71
2023/05/06 07:38:53;;;;;;;12.25;2.75;;;15.90;99.90;;;15.33;100.00;101068.41;4119243;28;20045;-71
2023/05/06 07:40:54;;;;;;;9.00;2.80;;;15.90;99.90;;;15.30;100.00;101054.66;4119618;28;20054;-71
2023/05/06 07:42:55;;;;;;;4.95;2.05;;;15.90;99.90;;;15.32;100.00;101050.81;4119784;28;20040;-71
2023/05/06 07:44:56;;;;;;;7.60;2.45;;;15.90;99.90;;;15.36;100.00;101056.59;4134346;28;20051;-71
2023/05/06 07:46:57;;;;;;;4.93;2.55;;;16.00;99.90;;;15.40;100.00;101045.44;4119689;28;20038;-71
2023/05/06 07:48:58;;;;;;;9.02;2.45;;;16.00;99.90;;;15.49;100.00;101049.72;4119405;28;20042;-71
2023/05/06 07:50:59;;;;;;;6.43;1.80;;;16.10;99.90;;;15.55;100.00;101053.47;4134988;28;20065;-71
2023/05/06 07:53:00;;;;;;;5.20;1.70;;;16.10;99.90;;;15.55;100.00;101048.16;4118541;28;20023;-71
2023/05/06 07:55:01;;;;;;;6.32;2.05;;;16.20;99.90;;;15.64;100.00;101064.84;4120045;28;20054;-71
2023/05/06 07:57:02;;;;;;;4.63;1.83;;;16.30;99.90;;;15.60;100.00;101066.22;4119788;28;20030;-71
2023/05/06 07:59:04;;;;;;;7.10;2.05;;;16.30;99.90;;;15.62;100.00;101059.69;4120085;28;20090;-71
2023/05/06 08:01:05;;;;;;;7.65;1.95;;;16.30;99.90;;;15.56;100.00;101065.75;4120003;28;20027;-71
2023/05/06 08:03:06;;;;;;;7.20;1.85;;;16.20;99.90;;;15.62;100.00;101064.22;4134604;28;20053;-72
2023/05/06 08:05:07;;;;;;;5.60;2.20;;;16.30;99.90;;;15.77;100.00;101062.41;4118476;28;20031;-72
2023/05/06 08:07:09;;;;;;;7.57;2.67;;;16.40;99.90;;;16.04;100.00;101064.41;4119619;28;20118;-72
2023/05/06 08:09:11;;;;;;;7.97;2.50;;;16.50;99.90;;;16.20;100.00;101063.41;4116624;28;20030;-71
2023/05/06 08:11:12;;;;;;;7.07;2.15;;;16.60;99.90;;;16.40;100.00;101060.00;4118252;28;20030;-71
2023/05/06 08:13:13;;;;;;;7.97;3.05;;;16.80;99.90;;;16.55;100.00;101058.16;4119704;28;20026;-72
2023/05/06 08:15:14;;;;;;;5.38;1.92;;;17.00;99.90;;;16.61;100.00;101061.13;4118162;28;20062;-72
2023/05/06 08:17:15;;;;;;;6.00;1.48;;;17.10;99.90;;;16.75;100.00;101057.56;4101934;29;20026;-72
2023/05/06 08:19:16;;;;;;;7.95;2.25;;;17.20;99.90;;;16.90;100.00;101061.03;4118954;28;20406;-72
2023/05/06 08:21:17;;;;;;;6.40;1.90;;;17.40;99.90;;;16.81;100.00;101057.66;4119378;28;20019;-72